createdAt,value
2022-12-29T00:00:25.792Z,8.98
2022-12-29T00:03:14.566Z,9.38
2022-12-29T00:05:43.092Z,10.93
2022-12-29T00:08:11.683Z,10.93
2022-12-29T00:10:39.981Z,9.93
2022-12-29T00:13:27.193Z,11.90
2022-12-29T00:15:56.320Z,10.93
2022-12-29T00:18:25.019Z,11.57
2022-12-29T00:21:14.704Z,15.10
2022-12-29T00:24:00.538Z,16.20
2022-12-29T00:26:45.512Z,14.23
2022-12-29T00:29:33.251Z,12.23
2022-12-29T00:32:19.902Z,15.73
2022-12-29T00:35:06.376Z,15.50
2022-12-29T00:37:48.673Z,12.93
2022-12-29T00:40:31.233Z,12.50
2022-12-29T00:43:17.416Z,14.30
2022-12-29T00:45:48.020Z,13.10
2022-12-29T00:48:16.562Z,12.07
2022-12-29T00:50:44.364Z,14.18
2022-12-29T00:53:13.016Z,13.90
2022-12-29T00:55:42.252Z,15.30
2022-12-29T00:58:10.664Z,19.73
2022-12-29T01:00:39.270Z,17.63
2022-12-29T01:03:09.115Z,18.15
2022-12-29T01:05:38.841Z,20.00
2022-12-29T01:08:07.372Z,18.80
2022-12-29T01:10:35.061Z,21.50
2022-12-29T01:13:03.270Z,19.52
2022-12-29T01:15:31.721Z,17.75
2022-12-29T01:17:59.956Z,18.00
2022-12-29T01:20:29.882Z,20.77
2022-12-29T01:22:58.253Z,19.73
2022-12-29T01:25:26.848Z,19.67
2022-12-29T01:27:55.189Z,19.35
2022-12-29T01:30:23.802Z,20.42
2022-12-29T01:32:52.079Z,17.65
2022-12-29T01:35:20.808Z,19.52
2022-12-29T01:37:50.532Z,15.70
2022-12-29T01:40:19.461Z,18.95
2022-12-29T01:42:48.182Z,17.98
2022-12-29T01:45:17.485Z,15.88
2022-12-29T01:47:49.052Z,12.52
2022-12-29T01:52:56.761Z,16.13
2022-12-29T01:55:25.915Z,16.98
2022-12-29T01:57:55.869Z,18.25
2022-12-29T02:00:24.594Z,20.65
2022-12-29T02:02:54.478Z,19.75
2022-12-29T02:05:42.524Z,16.98
2022-12-29T02:08:12.537Z,16.23
2022-12-29T02:10:41.597Z,12.43
2022-12-29T02:13:10.052Z,13.45
2022-12-29T02:15:55.023Z,14.38
2022-12-29T02:18:38.098Z,17.70
2022-12-29T02:21:49.441Z,13.38
2022-12-29T02:25:09.274Z,18.40
2022-12-29T02:27:51.336Z,15.20
2022-12-29T02:30:43.888Z,16.15
2022-12-29T02:33:23.442Z,13.07
2022-12-29T02:35:56.919Z,12.65
2022-12-29T02:38:36.077Z,13.18
2022-12-29T02:41:09.565Z,11.20
2022-12-29T02:43:41.441Z,13.23
2022-12-29T02:46:19.623Z,13.95
2022-12-29T02:48:53.939Z,12.07
2022-12-29T02:51:26.210Z,12.00
2022-12-29T02:54:12.748Z,12.40
2022-12-29T02:56:43.321Z,11.55
2022-12-29T02:59:12.715Z,9.73
2022-12-29T03:02:10.025Z,9.00
2022-12-29T03:04:43.102Z,10.48
2022-12-29T03:07:16.959Z,8.95
2022-12-29T03:09:51.967Z,11.65
2022-12-29T03:12:41.300Z,11.55
2022-12-29T03:15:30.995Z,8.73
2022-12-29T03:18:06.509Z,7.53
2022-12-29T03:20:40.654Z,8.13
2022-12-29T03:23:09.301Z,9.43
2022-12-29T03:25:39.880Z,9.65
2022-12-29T03:28:10.945Z,7.75
2022-12-29T03:33:11.827Z,8.48
2022-12-29T03:35:43.109Z,9.38
2022-12-29T03:38:17.157Z,8.38
2022-12-29T03:40:49.918Z,8.05
2022-12-29T03:43:18.597Z,7.90
2022-12-29T03:45:47.251Z,6.78
2022-12-29T03:48:16.996Z,7.43
2022-12-29T03:50:45.668Z,9.82
2022-12-29T03:53:14.030Z,9.30
2022-12-29T03:55:43.494Z,9.68
2022-12-29T03:58:11.810Z,7.85
2022-12-29T04:00:41.737Z,8.80
2022-12-29T04:03:10.081Z,8.75
2022-12-29T04:05:40.148Z,7.25
2022-12-29T04:08:08.501Z,9.45
2022-12-29T04:10:37.135Z,8.90
2022-12-29T04:13:05.342Z,9.13
2022-12-29T04:15:33.984Z,8.23
2022-12-29T04:18:02.436Z,11.48
2022-12-29T04:20:48.244Z,9.95
2022-12-29T04:23:18.752Z,10.10
2022-12-29T04:25:48.412Z,11.75
2022-12-29T04:28:16.882Z,11.00
2022-12-29T04:30:48.415Z,13.35
2022-12-29T04:33:16.798Z,10.02
2022-12-29T04:35:47.934Z,12.88
2022-12-29T04:38:16.523Z,12.50
2022-12-29T04:40:47.250Z,14.13
2022-12-29T04:43:15.876Z,14.70
2022-12-29T04:45:45.810Z,13.32
2022-12-29T04:48:14.619Z,12.48
2022-12-29T04:50:43.405Z,11.07
2022-12-29T04:53:11.911Z,14.65
2022-12-29T04:55:40.588Z,14.30
2022-12-29T04:58:10.262Z,12.38
2022-12-29T05:00:38.827Z,10.95
2022-12-29T05:03:07.340Z,13.20
2022-12-29T05:05:36.295Z,13.13
2022-12-29T05:08:04.521Z,11.93
2022-12-29T05:10:33.107Z,12.73
2022-12-29T05:13:01.935Z,11.20
2022-12-29T05:15:32.230Z,11.57
2022-12-29T05:18:00.615Z,8.68
2022-12-29T05:20:29.127Z,10.75
2022-12-29T05:22:57.490Z,11.07
2022-12-29T05:25:26.107Z,10.52
2022-12-29T05:27:54.528Z,10.65
2022-12-29T05:30:23.197Z,9.90
2022-12-29T05:32:52.908Z,11.68
2022-12-29T05:35:21.423Z,13.82
2022-12-29T05:37:49.704Z,9.10
2022-12-29T05:40:18.899Z,11.30
2022-12-29T05:42:47.459Z,11.68
2022-12-29T05:45:16.153Z,10.93
2022-12-29T05:47:44.577Z,13.60
2022-12-29T05:50:14.546Z,11.55
2022-12-29T05:52:42.995Z,11.02
2022-12-29T05:55:12.138Z,12.32
2022-12-29T05:57:40.577Z,10.35
2022-12-29T06:00:10.757Z,13.52
2022-12-29T06:02:39.189Z,12.50
2022-12-29T06:05:08.295Z,10.20
2022-12-29T06:07:38.110Z,9.13
2022-12-29T06:10:07.640Z,9.68
2022-12-29T06:12:35.851Z,8.85
2022-12-29T06:15:04.710Z,11.13
2022-12-29T06:17:33.091Z,13.23
2022-12-29T06:20:02.243Z,11.63
2022-12-29T06:22:30.840Z,11.25
2022-12-29T06:25:04.889Z,13.02
2022-12-29T06:27:33.936Z,13.48
2022-12-29T06:30:02.751Z,17.10
2022-12-29T06:32:31.285Z,12.38
2022-12-29T06:35:00.375Z,12.80
2022-12-29T06:37:28.810Z,12.57
2022-12-29T06:39:58.142Z,13.60
2022-12-29T06:42:27.893Z,12.63
2022-12-29T06:45:01.775Z,11.63
2022-12-29T06:47:30.454Z,14.82
2022-12-29T06:49:59.206Z,13.15
2022-12-29T06:52:27.596Z,14.52
2022-12-29T06:54:56.531Z,13.23
2022-12-29T06:57:25.176Z,14.73
2022-12-29T06:59:56.670Z,13.35
2022-12-29T07:02:26.485Z,13.68
2022-12-29T07:04:55.701Z,12.70
2022-12-29T07:07:24.074Z,13.00
2022-12-29T07:09:52.828Z,12.60
2022-12-29T07:12:21.221Z,11.48
2022-12-29T07:14:50.127Z,9.80
2022-12-29T07:17:19.891Z,10.93
2022-12-29T07:19:48.515Z,15.10
2022-12-29T07:22:16.751Z,12.18
2022-12-29T07:24:46.140Z,18.35
2022-12-29T07:27:14.510Z,11.60
2022-12-29T07:29:43.516Z,12.13
2022-12-29T07:32:11.887Z,13.63
2022-12-29T07:34:41.925Z,10.88
2022-12-29T07:37:10.409Z,14.52
2022-12-29T07:39:39.046Z,12.85
2022-12-29T07:42:07.432Z,13.05
2022-12-29T07:44:37.689Z,16.92
2022-12-29T07:47:06.176Z,11.10
2022-12-29T07:49:34.776Z,11.90
2022-12-29T07:52:04.517Z,12.20
2022-12-29T07:54:35.104Z,30.42
2022-12-29T07:57:06.942Z,14.90
2022-12-29T07:59:35.747Z,14.38
2022-12-29T08:02:04.205Z,11.13
2022-12-29T08:04:33.070Z,13.25
2022-12-29T08:07:01.957Z,16.42
2022-12-29T08:09:31.949Z,21.15
2022-12-29T08:12:00.426Z,18.48
2022-12-29T08:14:28.940Z,18.55
2022-12-29T08:16:57.377Z,22.42
2022-12-29T08:19:26.514Z,17.00
2022-12-29T08:21:55.984Z,24.65
2022-12-29T08:24:27.008Z,22.05
2022-12-29T08:27:18.180Z,23.65
2022-12-29T08:30:08.130Z,21.27
2022-12-29T08:32:46.934Z,23.27
2022-12-29T08:35:24.701Z,22.10
2022-12-29T08:38:01.613Z,26.00
2022-12-29T08:40:35.113Z,18.85
2022-12-29T08:43:08.818Z,28.40
2022-12-29T08:45:37.846Z,20.13
2022-12-29T08:48:21.344Z,22.15
2022-12-29T08:50:50.877Z,16.67
2022-12-29T08:53:19.999Z,17.33
2022-12-29T08:55:49.763Z,19.92
2022-12-29T08:58:19.763Z,21.42
2022-12-29T09:00:48.449Z,15.73
2022-12-29T09:03:25.864Z,20.55
2022-12-29T09:06:05.937Z,18.00
2022-12-29T09:08:34.548Z,15.40
2022-12-29T09:11:10.668Z,17.08
2022-12-29T09:13:41.138Z,16.20
2022-12-29T09:16:10.204Z,17.30
2022-12-29T09:18:38.900Z,15.77
2022-12-29T09:21:08.448Z,14.63
2022-12-29T09:23:45.157Z,15.70
2022-12-29T09:26:23.010Z,15.50
2022-12-29T09:28:54.790Z,19.63
2022-12-29T09:31:28.451Z,17.58
2022-12-29T09:33:57.379Z,17.17
2022-12-29T09:36:26.026Z,14.32
2022-12-29T09:38:55.895Z,16.60
2022-12-29T09:41:29.005Z,12.50
2022-12-29T09:44:06.266Z,13.00
2022-12-29T09:46:37.123Z,12.35
2022-12-29T09:49:19.970Z,17.60
2022-12-29T09:51:50.676Z,16.35
2022-12-29T09:54:27.186Z,14.85
2022-12-29T09:56:56.619Z,15.80
2022-12-29T09:59:31.757Z,14.15
2022-12-29T10:02:15.295Z,13.80
2022-12-29T10:04:44.539Z,14.00
2022-12-29T10:07:29.508Z,19.98
2022-12-29T10:10:05.747Z,12.45
2022-12-29T10:12:45.360Z,14.80
2022-12-29T10:15:23.488Z,15.65
2022-12-29T10:17:57.098Z,16.17
2022-12-29T10:20:31.695Z,14.10
2022-12-29T10:23:18.607Z,14.57
2022-12-29T10:25:47.318Z,16.55
2022-12-29T10:28:20.954Z,12.43
2022-12-29T10:30:53.969Z,14.52
2022-12-29T10:33:26.559Z,15.88
2022-12-29T10:35:54.950Z,12.70
2022-12-29T10:38:28.926Z,13.90
2022-12-29T10:41:01.163Z,17.00
2022-12-29T10:43:31.252Z,16.42
2022-12-29T10:46:05.294Z,20.48
2022-12-29T10:48:35.635Z,15.15
2022-12-29T10:51:05.638Z,16.13
2022-12-29T10:53:44.679Z,16.75
2022-12-29T10:56:19.230Z,12.93
2022-12-29T10:58:49.824Z,18.52
2022-12-29T11:01:21.574Z,16.17
2022-12-29T11:04:00.386Z,14.20
2022-12-29T11:06:31.237Z,14.18
2022-12-29T11:09:01.887Z,13.45
2022-12-29T11:11:36.536Z,23.90
2022-12-29T11:14:13.891Z,20.98
2022-12-29T11:16:45.841Z,19.27
2022-12-29T11:19:38.997Z,16.83
2022-12-29T11:22:18.769Z,21.25
2022-12-29T11:24:49.159Z,20.98
2022-12-29T11:27:20.785Z,31.10
2022-12-29T11:29:50.931Z,26.75
2022-12-29T11:32:28.383Z,28.40
2022-12-29T11:35:00.297Z,26.05
2022-12-29T11:37:32.262Z,31.23
2022-12-29T11:40:05.414Z,19.92
2022-12-29T11:42:38.124Z,19.33
2022-12-29T11:45:14.113Z,21.65
2022-12-29T11:47:47.235Z,16.88
2022-12-29T11:50:21.388Z,17.83
2022-12-29T11:52:51.118Z,21.48
2022-12-29T11:55:23.292Z,21.90
2022-12-29T11:57:53.213Z,19.98
2022-12-29T12:00:26.389Z,24.30
2022-12-29T12:03:01.722Z,23.60
2022-12-29T12:05:36.537Z,20.73
2022-12-29T12:08:16.166Z,23.77
2022-12-29T12:10:51.560Z,21.25
2022-12-29T12:13:25.235Z,18.45
2022-12-29T12:16:02.647Z,21.10
2022-12-29T12:18:39.430Z,37.58
2022-12-29T12:21:13.470Z,21.23
2022-12-29T12:23:51.312Z,18.92
2022-12-29T12:26:22.665Z,20.25
2022-12-29T12:28:57.229Z,16.80
2022-12-29T12:31:35.749Z,17.30
2022-12-29T12:34:08.689Z,22.58
2022-12-29T12:37:01.610Z,18.80
2022-12-29T12:39:39.209Z,22.08
2022-12-29T12:42:20.676Z,21.30
2022-12-29T12:44:58.126Z,16.98
2022-12-29T12:47:45.791Z,25.77
2022-12-29T12:50:34.123Z,17.02
2022-12-29T12:53:21.450Z,21.55
2022-12-29T12:56:03.537Z,20.17
2022-12-29T12:58:39.636Z,19.73
2022-12-29T13:01:18.211Z,20.98
2022-12-29T13:04:14.661Z,26.73
2022-12-29T13:06:53.702Z,28.50
2022-12-29T13:09:45.677Z,41.60
2022-12-29T13:12:23.152Z,26.10
2022-12-29T13:15:12.622Z,24.90
2022-12-29T13:17:46.379Z,34.03
2022-12-29T13:20:27.493Z,27.40
2022-12-29T13:23:09.011Z,28.58
2022-12-29T13:26:01.199Z,20.25
2022-12-29T13:28:38.065Z,23.17
2022-12-29T13:31:13.046Z,21.58
2022-12-29T13:33:51.529Z,21.25
2022-12-29T13:36:27.306Z,23.52
2022-12-29T13:39:05.260Z,19.70
2022-12-29T13:41:35.833Z,23.98
2022-12-29T13:44:07.533Z,25.85
2022-12-29T13:46:40.879Z,23.33
2022-12-29T13:49:15.720Z,19.08
2022-12-29T13:51:50.917Z,21.45
2022-12-29T13:54:30.154Z,23.55
2022-12-29T13:57:05.426Z,18.75
2022-12-29T13:59:47.709Z,30.00
2022-12-29T14:02:25.723Z,22.10
2022-12-29T14:05:01.212Z,18.52
2022-12-29T14:07:31.671Z,14.73
2022-12-29T14:10:06.802Z,19.83
2022-12-29T14:12:40.266Z,14.95
2022-12-29T14:15:18.051Z,16.10
2022-12-29T14:17:48.291Z,16.52
2022-12-29T14:20:22.744Z,16.97
2022-12-29T14:23:02.638Z,15.13
2022-12-29T14:25:56.950Z,17.13
2022-12-29T14:28:27.587Z,18.08
2022-12-29T14:30:58.303Z,20.15
2022-12-29T14:33:31.282Z,26.02
2022-12-29T14:36:23.879Z,22.80
2022-12-29T14:38:56.538Z,18.65
2022-12-29T14:41:36.528Z,17.75
2022-12-29T14:44:22.519Z,17.77
2022-12-29T14:46:59.548Z,14.52
2022-12-29T14:49:39.197Z,18.17
2022-12-29T14:55:34.736Z,19.90
2022-12-29T15:00:42.651Z,17.85
2022-12-29T15:03:22.737Z,19.27
2022-12-29T15:05:53.926Z,17.13
2022-12-29T15:10:56.281Z,17.10
2022-12-29T15:13:36.431Z,17.27
2022-12-29T15:16:05.857Z,17.52
2022-12-29T15:18:40.497Z,18.95
2022-12-29T15:21:09.393Z,20.90
2022-12-29T15:23:41.378Z,19.00
2022-12-29T15:26:11.504Z,23.60
2022-12-29T15:28:46.796Z,17.02
2022-12-29T15:31:16.838Z,20.13
2022-12-29T15:33:57.861Z,22.07
2022-12-29T15:36:29.234Z,31.23
2022-12-29T15:39:05.496Z,35.28
2022-12-29T15:42:00.237Z,49.15
2022-12-29T15:44:37.588Z,28.95
2022-12-29T15:47:23.171Z,32.20
2022-12-29T15:50:07.340Z,22.45
2022-12-29T15:52:39.863Z,40.53
2022-12-29T15:55:24.786Z,27.65
2022-12-29T15:58:06.663Z,28.15
2022-12-29T16:01:14.286Z,32.80
2022-12-29T16:03:52.877Z,32.00
2022-12-29T16:06:41.939Z,22.95
2022-12-29T16:09:18.989Z,21.95
2022-12-29T16:18:28.851Z,21.17
2022-12-29T16:21:02.685Z,35.90
2022-12-29T16:23:36.830Z,35.50
2022-12-29T16:26:11.128Z,25.27
2022-12-29T16:29:01.365Z,20.88
2022-12-29T16:38:36.893Z,26.77
2022-12-29T16:41:06.454Z,29.95
2022-12-29T16:43:47.790Z,30.77
2022-12-29T16:46:31.571Z,29.98
2022-12-29T16:49:26.199Z,30.65
2022-12-29T16:52:15.915Z,30.00
2022-12-29T16:55:06.416Z,30.67
2022-12-29T16:57:48.223Z,31.83
2022-12-29T17:00:22.703Z,23.13
2022-12-29T17:02:56.293Z,50.72
2022-12-29T17:08:51.991Z,30.83
2022-12-29T17:11:57.814Z,48.35
2022-12-29T17:14:40.640Z,32.80
2022-12-29T17:17:36.693Z,33.45
2022-12-29T17:25:43.674Z,39.50
2022-12-29T17:28:26.168Z,35.08
2022-12-29T17:31:14.237Z,34.92
2022-12-29T17:33:56.154Z,30.75
2022-12-29T17:36:29.144Z,27.95
2022-12-29T17:39:09.375Z,31.17
2022-12-29T17:41:41.959Z,27.73
2022-12-29T17:44:23.016Z,31.00
2022-12-29T17:47:09.018Z,30.48
2022-12-29T17:53:00.673Z,35.33
2022-12-29T17:58:24.090Z,33.22
2022-12-29T18:01:01.563Z,41.03
2022-12-29T18:03:32.981Z,38.20
2022-12-29T18:06:07.180Z,34.70
2022-12-29T18:08:37.253Z,36.50
2022-12-29T18:11:08.123Z,37.10
2022-12-29T18:13:45.921Z,37.50
2022-12-29T18:16:21.520Z,56.50
2022-12-29T18:18:50.703Z,46.63
2022-12-29T18:21:35.920Z,56.10
2022-12-29T18:24:07.943Z,49.60
2022-12-29T18:26:38.559Z,59.47
2022-12-29T18:29:08.505Z,47.80
2022-12-29T18:31:40.374Z,44.58
2022-12-29T18:34:15.457Z,48.78
2022-12-29T18:36:45.943Z,59.70
2022-12-29T18:39:15.187Z,51.35
2022-12-29T18:41:46.187Z,42.28
2022-12-29T18:44:15.683Z,54.05
2022-12-29T18:46:49.563Z,55.35
2022-12-29T18:49:20.433Z,57.83
2022-12-29T18:51:49.602Z,36.72
2022-12-29T18:54:27.254Z,40.60
2022-12-29T18:57:02.254Z,34.17
2022-12-29T18:59:43.364Z,43.63
2022-12-29T19:04:53.185Z,40.97
2022-12-29T19:07:25.414Z,36.97
2022-12-29T19:09:56.414Z,35.00
2022-12-29T19:12:28.477Z,34.35
2022-12-29T19:17:27.220Z,26.27
2022-12-29T19:19:56.092Z,28.90
2022-12-29T19:22:25.076Z,31.30
2022-12-29T19:24:59.647Z,28.42
2022-12-29T19:27:29.176Z,37.92
2022-12-29T19:29:57.934Z,34.55
2022-12-29T19:32:28.437Z,33.22
2022-12-29T19:34:56.850Z,27.85
2022-12-29T19:37:25.781Z,28.25
2022-12-29T19:39:54.528Z,26.52
2022-12-29T19:42:23.557Z,35.30
2022-12-29T19:44:52.004Z,31.35
2022-12-29T19:47:21.166Z,38.30
2022-12-29T19:49:51.647Z,39.13
2022-12-29T19:52:20.627Z,40.72
2022-12-29T19:54:49.391Z,32.58
2022-12-29T19:57:19.076Z,29.58
2022-12-29T19:59:47.795Z,35.05
2022-12-29T20:02:21.641Z,26.08
2022-12-29T20:04:53.964Z,27.17
2022-12-29T20:07:23.931Z,23.65
2022-12-29T20:09:52.744Z,21.00
2022-12-29T20:12:28.838Z,19.27
2022-12-29T20:14:58.203Z,22.35
2022-12-29T20:18:10.360Z,23.23
2022-12-29T20:20:18.100Z,23.17
2022-12-29T20:22:47.304Z,25.75
2022-12-29T20:25:44.285Z,20.88
2022-12-29T20:28:05.220Z,23.42
2022-12-29T20:30:35.161Z,22.52
2022-12-29T20:33:08.402Z,20.33
2022-12-29T20:35:40.207Z,21.48
2022-12-29T20:38:10.045Z,20.90
2022-12-29T20:40:46.235Z,23.73
2022-12-29T20:43:17.925Z,20.58
2022-12-29T20:45:49.425Z,21.38
2022-12-29T20:48:24.139Z,23.80
2022-12-29T20:51:01.023Z,25.15
2022-12-29T20:53:41.925Z,27.38
2022-12-29T20:56:13.801Z,25.27
2022-12-29T20:59:17.139Z,27.15
2022-12-29T21:01:32.694Z,22.65
2022-12-29T21:04:02.117Z,24.63
2022-12-29T21:06:32.481Z,25.55
2022-12-29T21:09:01.788Z,25.25
2022-12-29T21:11:30.744Z,20.63
2022-12-29T21:14:02.965Z,23.40
2022-12-29T21:16:31.752Z,36.78
2022-12-29T21:19:02.211Z,28.08
2022-12-29T21:21:32.191Z,28.38
2022-12-29T21:24:05.762Z,33.67
2022-12-29T21:26:36.028Z,25.25
2022-12-29T21:29:05.997Z,38.20
2022-12-29T21:31:37.579Z,36.20
2022-12-29T21:34:08.259Z,33.70
2022-12-29T21:36:38.329Z,26.97
2022-12-29T21:39:07.526Z,24.15
2022-12-29T21:41:36.120Z,25.40
2022-12-29T21:44:23.322Z,25.33
2022-12-29T21:46:52.274Z,24.00
2022-12-29T21:49:21.880Z,22.13
2022-12-29T21:51:51.686Z,23.65
2022-12-29T21:54:40.717Z,23.48
2022-12-29T21:57:10.581Z,27.30
2022-12-29T21:59:57.546Z,26.23
2022-12-29T22:02:44.630Z,28.17
2022-12-29T22:05:32.150Z,26.38
2022-12-29T22:08:20.970Z,26.15
2022-12-29T22:11:07.718Z,26.40
2022-12-29T22:13:37.770Z,29.27
2022-12-29T22:16:08.631Z,25.03
2022-12-29T22:18:38.483Z,27.55
2022-12-29T22:21:08.745Z,25.40
2022-12-29T22:23:39.703Z,21.33
2022-12-29T22:28:40.473Z,24.15
2022-12-29T22:31:27.352Z,23.85
2022-12-29T22:33:56.871Z,25.25
2022-12-29T22:36:26.629Z,30.58
2022-12-29T22:38:56.548Z,29.25
2022-12-29T22:41:26.584Z,28.70
2022-12-29T22:43:55.223Z,22.30
2022-12-29T22:46:24.701Z,23.67
2022-12-29T22:48:53.497Z,20.58
2022-12-29T22:51:22.518Z,20.83
2022-12-29T22:53:51.251Z,22.65
2022-12-29T22:56:21.634Z,21.67
2022-12-29T22:58:50.374Z,23.17
2022-12-29T23:01:23.144Z,20.60
2022-12-29T23:03:52.192Z,25.05
2022-12-29T23:06:23.300Z,22.30
2022-12-29T23:08:54.307Z,21.17
2022-12-29T23:11:25.371Z,26.00
2022-12-29T23:13:54.017Z,20.73
2022-12-29T23:16:23.581Z,20.60
2022-12-29T23:18:53.632Z,21.02
2022-12-29T23:21:22.861Z,18.27
2022-12-29T23:24:04.324Z,22.30
2022-12-29T23:26:37.519Z,21.63
2022-12-29T23:29:08.673Z,17.55
2022-12-29T23:34:07.465Z,20.35
2022-12-29T23:36:37.160Z,21.05
2022-12-29T23:39:08.791Z,18.60
2022-12-29T23:41:39.817Z,17.38
2022-12-29T23:44:08.767Z,17.60
2022-12-29T23:46:38.047Z,18.58
2022-12-29T23:49:06.709Z,19.83
2022-12-29T23:51:35.850Z,20.40
2022-12-29T23:54:05.358Z,18.05
2022-12-29T23:56:34.419Z,21.90
2022-12-29T23:59:06.341Z,19.55
